Aviation Digital Data Service (ADDS)

Output produced by METARs form (1739 UTC 27 May 2017)
found at http://www.aviationweather.gov/adds/metars/
 
FOOG 271700Z 18010KT 9999 FEW011 BKN040 28/24 Q1013
TAF FOOG 271700Z 2718/2818 18008KT 9999 SCT010 
     PROB30 
     TEMPO 2803/2807 4000 RA BKN006
       
FOOL 271700Z 23006KT 200V260 9999 FEW013 28/24 Q1013 NOSIG
TAF FOOL 271700Z 2718/2824 22006KT 9999 SCT010 BKN030 
     PROB30 
     TEMPO 2802/2806 4000 RA
       
FOON 271700Z /////KT 9999 SCT011 BKN033 26/23 Q1015
FOON 271700Z /////KT 9999 SCT011 BKN033 26/23 Q1015
FOOG 271700Z 18010KT 9999 FEW011 BKN040 28/24 Q1013
TAF FOOG 271700Z 2718/2818 18008KT 9999 SCT010 
     PROB30 
     TEMPO 2803/2807 4000 RA BKN006
       
FOOL 271700Z 23006KT 200V260 9999 FEW013 28/24 Q1013 NOSIG
TAF FOOL 271700Z 2718/2824 22006KT 9999 SCT010 BKN030 
     PROB30 
     TEMPO 2802/2806 4000 RA
       
FOON 271700Z /////KT 9999 SCT011 BKN033 26/23 Q1015
FOOL 271700Z 23006KT 200V260 9999 FEW013 28/24 Q1013 NOSIG
TAF FOOL 271700Z 2718/2824 22006KT 9999 SCT010 BKN030 
     PROB30 
     TEMPO 2802/2806 4000 RA
       
FOOG 271700Z 18010KT 9999 FEW011 BKN040 28/24 Q1013
TAF FOOG 271700Z 2718/2818 18008KT 9999 SCT010 
     PROB30 
     TEMPO 2803/2807 4000 RA BKN006